createdAt,value
2018-07-20T00:01:52.962Z,14.57
2018-07-20T00:04:21.369Z,14.55
2018-07-20T00:06:49.714Z,14.39
2018-07-20T00:09:18.132Z,14.61
2018-07-20T00:11:46.458Z,14.64
2018-07-20T00:14:14.730Z,14.97
2018-07-20T00:16:43.088Z,14.94
2018-07-20T00:19:11.439Z,15.01
2018-07-20T00:21:39.745Z,14.76
2018-07-20T00:24:08.040Z,14.79
2018-07-20T00:26:36.370Z,14.50
2018-07-20T00:29:04.725Z,14.48
2018-07-20T00:31:33.043Z,14.29
2018-07-20T00:34:01.344Z,14.31
2018-07-20T00:36:29.786Z,14.58
2018-07-20T00:38:58.096Z,14.91
2018-07-20T00:41:26.478Z,14.94
2018-07-20T00:43:54.858Z,14.98
2018-07-20T00:46:23.174Z,15.20
2018-07-20T00:48:51.518Z,14.72
2018-07-20T00:51:19.993Z,14.81
2018-07-20T00:53:48.562Z,14.89
2018-07-20T00:56:16.950Z,14.99
2018-07-20T00:58:45.352Z,14.88
2018-07-20T01:01:13.898Z,14.81
2018-07-20T01:03:42.183Z,14.89
2018-07-20T01:06:10.534Z,14.96
2018-07-20T01:08:38.824Z,14.97
2018-07-20T01:11:07.472Z,14.70
2018-07-20T01:13:35.737Z,14.47
2018-07-20T01:16:04.106Z,14.37
2018-07-20T01:18:32.437Z,14.40
2018-07-20T01:21:00.955Z,14.61
2018-07-20T01:23:29.268Z,14.77
2018-07-20T01:25:57.668Z,14.83
2018-07-20T01:28:25.945Z,14.81
2018-07-20T01:30:54.278Z,14.56
2018-07-20T01:33:22.546Z,14.29
2018-07-20T01:35:51.005Z,14.13
2018-07-20T01:38:19.372Z,14.10
2018-07-20T01:40:47.651Z,14.11
2018-07-20T01:43:15.988Z,13.89
2018-07-20T01:45:44.295Z,13.99
2018-07-20T01:48:12.779Z,13.97
2018-07-20T01:50:41.093Z,13.97
2018-07-20T01:53:09.716Z,14.17
2018-07-20T01:55:37.999Z,14.32
2018-07-20T01:58:06.357Z,14.37
2018-07-20T02:00:34.708Z,14.26
2018-07-20T02:03:03.046Z,14.03
2018-07-20T02:05:31.410Z,13.72
2018-07-20T02:07:59.753Z,13.71
2018-07-20T02:10:28.044Z,13.81
2018-07-20T02:12:56.376Z,13.79
2018-07-20T02:15:24.742Z,13.80
2018-07-20T02:17:53.161Z,13.80
2018-07-20T02:20:21.542Z,13.68
2018-07-20T02:22:49.858Z,13.56
2018-07-20T02:25:18.155Z,13.42
2018-07-20T02:27:46.637Z,13.47
2018-07-20T02:30:14.991Z,13.60
2018-07-20T02:32:43.383Z,13.47
2018-07-20T02:35:11.727Z,13.44
2018-07-20T02:37:40.053Z,13.15
2018-07-20T02:40:08.480Z,12.99
2018-07-20T02:42:36.789Z,13.03
2018-07-20T02:45:05.638Z,13.19
2018-07-20T02:47:34.147Z,13.28
2018-07-20T02:50:02.484Z,13.32
2018-07-20T02:52:31.099Z,13.17
2018-07-20T02:54:59.533Z,12.92
2018-07-20T02:57:27.853Z,13.19
2018-07-20T02:59:56.282Z,13.01
2018-07-20T03:02:24.647Z,13.01
2018-07-20T03:04:53.101Z,13.05
2018-07-20T03:07:21.392Z,12.96
2018-07-20T03:09:50.371Z,12.78
2018-07-20T03:12:18.667Z,12.57
2018-07-20T03:14:46.989Z,12.54
2018-07-20T03:17:15.305Z,12.45
2018-07-20T03:19:43.674Z,12.50
2018-07-20T03:22:11.939Z,12.52
2018-07-20T03:24:40.566Z,12.58
2018-07-20T03:27:08.939Z,12.46
2018-07-20T03:29:37.261Z,12.52
2018-07-20T03:32:06.059Z,12.38
2018-07-20T03:34:34.421Z,12.38
2018-07-20T03:37:02.796Z,12.46
2018-07-20T03:39:31.352Z,12.57
2018-07-20T03:41:59.631Z,12.69
2018-07-20T03:44:28.104Z,12.65
2018-07-20T03:46:56.386Z,12.63
2018-07-20T03:49:24.774Z,12.49
2018-07-20T03:51:53.208Z,12.38
2018-07-20T03:54:21.566Z,12.24
2018-07-20T03:56:49.985Z,12.34
2018-07-20T03:59:18.312Z,12.50
2018-07-20T04:01:46.590Z,12.61
2018-07-20T04:04:14.902Z,12.78
2018-07-20T04:06:43.178Z,12.93
2018-07-20T04:09:11.811Z,12.93
2018-07-20T04:11:40.477Z,12.96
2018-07-20T04:14:08.845Z,12.83
2018-07-20T04:16:37.471Z,12.92
2018-07-20T04:19:05.906Z,12.95
2018-07-20T04:21:34.213Z,13.04
2018-07-20T04:24:02.687Z,13.25
2018-07-20T04:26:31.011Z,13.37
2018-07-20T04:28:59.354Z,13.60
2018-07-20T04:31:27.770Z,13.54
2018-07-20T04:33:56.215Z,13.68
2018-07-20T04:36:24.597Z,13.71
2018-07-20T04:38:52.926Z,13.80
2018-07-20T04:41:21.266Z,13.82
2018-07-20T04:43:49.845Z,14.00
2018-07-20T04:46:18.146Z,14.26
2018-07-20T04:48:46.426Z,14.34
2018-07-20T04:51:14.768Z,14.44
2018-07-20T04:53:43.136Z,14.44
2018-07-20T04:56:11.506Z,14.56
2018-07-20T04:58:39.996Z,14.60
2018-07-20T05:01:08.295Z,14.78
2018-07-20T05:03:36.641Z,14.83
2018-07-20T05:06:05.156Z,14.91
2018-07-20T05:08:33.481Z,15.03
2018-07-20T05:11:01.884Z,15.17
2018-07-20T05:13:30.193Z,15.29
2018-07-20T05:15:58.490Z,15.39
2018-07-20T05:18:26.803Z,15.59
2018-07-20T05:20:55.255Z,15.67
2018-07-20T05:23:23.546Z,15.82
2018-07-20T05:25:51.881Z,15.89
2018-07-20T05:28:20.208Z,15.98
2018-07-20T05:30:48.677Z,16.12
2018-07-20T05:33:17.442Z,16.22
2018-07-20T05:35:47.082Z,16.34
2018-07-20T05:38:15.412Z,16.47
2018-07-20T05:40:43.704Z,16.58
2018-07-20T05:43:12.019Z,16.68
2018-07-20T05:45:40.351Z,16.83
2018-07-20T05:48:08.634Z,16.96
2018-07-20T05:50:36.978Z,17.22
2018-07-20T05:53:05.412Z,17.37
2018-07-20T05:55:33.757Z,17.55
2018-07-20T05:58:02.075Z,17.66
2018-07-20T06:00:30.491Z,17.68
2018-07-20T06:02:58.826Z,17.75
2018-07-20T06:05:27.278Z,17.80
2018-07-20T06:07:55.816Z,17.91
2018-07-20T06:10:24.361Z,18.04
2018-07-20T06:12:53.041Z,18.13
2018-07-20T06:15:21.381Z,18.22
2018-07-20T06:17:50.538Z,18.36
2018-07-20T06:20:18.920Z,18.42
2018-07-20T06:22:47.611Z,18.57
2018-07-20T06:25:16.043Z,18.63
2018-07-20T06:27:46.348Z,18.67
2018-07-20T06:30:14.714Z,18.75
2018-07-20T06:32:43.202Z,18.85
2018-07-20T06:35:12.710Z,18.95
2018-07-20T06:40:33.661Z,19.15
2018-07-20T06:43:06.513Z,19.25
2018-07-20T06:45:37.666Z,19.29
2018-07-20T06:48:05.983Z,19.36
2018-07-20T06:50:34.541Z,19.44
2018-07-20T06:53:04.876Z,19.47
2018-07-20T06:55:33.173Z,19.50
2018-07-20T06:58:01.666Z,19.53
2018-07-20T07:00:32.483Z,19.56
2018-07-20T07:03:01.369Z,19.73
2018-07-20T07:05:30.651Z,19.85
2018-07-20T07:07:59.786Z,20.00
2018-07-20T07:10:34.398Z,19.98
2018-07-20T07:13:02.839Z,20.05
2018-07-20T07:15:31.443Z,20.09
2018-07-20T07:17:59.767Z,20.18
2018-07-20T07:20:28.103Z,20.30
2018-07-20T07:22:57.948Z,20.34
2018-07-20T07:25:27.766Z,20.37
2018-07-20T07:27:56.210Z,20.59
2018-07-20T07:30:24.547Z,20.65
2018-07-20T07:32:54.777Z,20.74
2018-07-20T07:35:23.598Z,20.84
2018-07-20T07:37:52.632Z,20.94
2018-07-20T07:40:22.000Z,21.05
2018-07-20T07:42:50.466Z,21.17
2018-07-20T07:45:18.847Z,21.26
2018-07-20T07:47:47.191Z,21.26
2018-07-20T07:50:15.539Z,21.31
2018-07-20T07:52:43.956Z,21.45
2018-07-20T07:55:12.280Z,21.46
2018-07-20T07:57:40.652Z,21.39
2018-07-20T08:00:08.945Z,21.52
2018-07-20T08:02:37.345Z,21.51
2018-07-20T08:05:05.700Z,21.52
2018-07-20T08:07:34.030Z,21.69
2018-07-20T08:10:02.532Z,21.78
2018-07-20T08:12:30.772Z,21.93
2018-07-20T08:14:59.038Z,21.96
2018-07-20T08:17:27.355Z,22.10
2018-07-20T08:19:55.854Z,22.16
2018-07-20T08:22:24.283Z,22.29
2018-07-20T08:24:52.680Z,22.31
2018-07-20T08:27:21.031Z,22.34
2018-07-20T08:29:49.312Z,22.37
2018-07-20T08:32:17.597Z,22.44
2018-07-20T08:34:45.874Z,22.44
2018-07-20T08:37:14.203Z,22.67
2018-07-20T08:39:42.962Z,22.75
2018-07-20T08:42:11.469Z,22.44
2018-07-20T08:44:40.031Z,22.56
2018-07-20T08:47:08.408Z,22.76
2018-07-20T08:49:36.707Z,23.07
2018-07-20T08:52:05.207Z,23.08
2018-07-20T08:54:33.512Z,23.19
2018-07-20T08:57:01.809Z,23.16
2018-07-20T08:59:30.101Z,23.29
2018-07-20T09:01:58.500Z,23.44
2018-07-20T09:04:26.822Z,23.35
2018-07-20T09:06:55.354Z,23.67
2018-07-20T09:09:23.630Z,23.74
2018-07-20T09:11:52.075Z,23.82
2018-07-20T09:14:20.383Z,23.76
2018-07-20T09:16:48.938Z,23.76
2018-07-20T09:19:17.302Z,23.80
2018-07-20T09:21:45.602Z,23.93
2018-07-20T09:24:13.899Z,24.13
2018-07-20T09:26:42.183Z,24.27
2018-07-20T09:29:10.494Z,24.49
2018-07-20T09:31:39.677Z,24.64
2018-07-20T09:34:08.048Z,24.55
2018-07-20T09:36:36.359Z,24.81
2018-07-20T09:39:08.139Z,24.77
2018-07-20T09:41:36.571Z,24.91
2018-07-20T09:44:05.174Z,25.32
2018-07-20T09:46:33.941Z,25.22
2018-07-20T09:49:02.381Z,25.12
2018-07-20T09:51:30.831Z,25.33
2018-07-20T09:53:59.235Z,25.39
2018-07-20T09:56:27.556Z,25.38
2018-07-20T09:58:55.891Z,25.33
2018-07-20T10:01:24.325Z,25.26
2018-07-20T10:03:52.780Z,25.39
2018-07-20T10:06:21.129Z,25.47
2018-07-20T10:08:49.587Z,25.42
2018-07-20T10:11:17.890Z,25.16
2018-07-20T10:13:46.232Z,25.24
2018-07-20T10:16:14.530Z,25.34
2018-07-20T10:18:42.867Z,25.25
2018-07-20T10:21:11.185Z,25.10
2018-07-20T10:23:39.503Z,25.05
2018-07-20T10:26:07.850Z,25.24
2018-07-20T10:28:36.662Z,25.21
2018-07-20T10:31:05.304Z,25.19
2018-07-20T10:33:33.649Z,25.12
2018-07-20T10:36:01.968Z,24.86
2018-07-20T10:38:30.318Z,25.15
2018-07-20T10:40:58.622Z,24.80
2018-07-20T10:43:27.243Z,25.04
2018-07-20T10:45:55.598Z,25.01
2018-07-20T10:48:24.223Z,25.10
2018-07-20T10:50:54.700Z,25.17
2018-07-20T10:53:23.795Z,24.97
2018-07-20T10:55:52.393Z,25.00
2018-07-20T10:58:20.908Z,25.02
2018-07-20T11:00:49.573Z,25.21
2018-07-20T11:03:18.584Z,25.27
2018-07-20T11:05:47.192Z,25.43
2018-07-20T11:08:17.286Z,25.33
2018-07-20T11:10:46.164Z,25.41
2018-07-20T11:13:14.616Z,25.50
2018-07-20T11:15:43.981Z,25.39
2018-07-20T11:18:14.949Z,25.69
2018-07-20T11:20:43.552Z,25.96
2018-07-20T11:23:12.131Z,26.03
2018-07-20T11:25:41.607Z,25.87
2018-07-20T11:28:10.076Z,26.17
2018-07-20T11:30:38.395Z,26.06
2018-07-20T11:33:06.810Z,26.43
2018-07-20T11:35:36.326Z,26.22
2018-07-20T11:38:04.733Z,26.14
2018-07-20T11:40:35.194Z,25.98
2018-07-20T11:43:03.826Z,25.96
2018-07-20T11:45:32.170Z,26.25
2018-07-20T11:48:00.664Z,26.17
2018-07-20T11:50:29.801Z,26.33
2018-07-20T11:52:58.473Z,26.71
2018-07-20T11:55:26.771Z,26.57
2018-07-20T11:57:55.123Z,26.79
2018-07-20T12:00:23.731Z,26.49
2018-07-20T12:02:52.424Z,25.94
2018-07-20T12:05:20.931Z,26.24
2018-07-20T12:07:49.353Z,26.26
2018-07-20T12:10:17.886Z,26.37
2018-07-20T12:12:46.550Z,26.62
2018-07-20T12:15:14.889Z,26.99
2018-07-20T12:17:44.965Z,27.35
2018-07-20T12:20:13.375Z,27.35
2018-07-20T12:22:41.695Z,27.44
2018-07-20T12:25:10.090Z,27.60
2018-07-20T12:27:38.461Z,27.45
2018-07-20T12:30:06.846Z,27.30
2018-07-20T12:32:35.234Z,27.23
2018-07-20T12:35:03.781Z,27.90
2018-07-20T12:37:32.158Z,27.75
2018-07-20T12:40:00.571Z,27.50
2018-07-20T12:42:28.900Z,27.72
2018-07-20T12:44:57.226Z,27.24
2018-07-20T12:47:25.539Z,27.28
2018-07-20T12:49:53.911Z,27.18
2018-07-20T12:52:22.203Z,27.02
2018-07-20T12:54:50.599Z,26.85
2018-07-20T12:57:18.895Z,26.84
2018-07-20T12:59:47.538Z,26.79
2018-07-20T13:02:16.154Z,27.10
2018-07-20T13:04:44.491Z,26.93
2018-07-20T13:07:12.927Z,26.91
2018-07-20T13:09:41.258Z,26.92
2018-07-20T13:12:09.608Z,27.05
2018-07-20T13:14:37.902Z,27.10
2018-07-20T13:17:06.225Z,27.09
2018-07-20T13:19:34.670Z,27.23
2018-07-20T13:22:02.950Z,27.27
2018-07-20T13:24:31.293Z,27.47
2018-07-20T13:26:59.601Z,27.58
2018-07-20T13:29:27.954Z,27.79
2018-07-20T13:31:56.394Z,28.02
2018-07-20T13:34:24.758Z,28.12
2018-07-20T13:36:53.091Z,28.17
2018-07-20T13:39:21.387Z,27.85
2018-07-20T13:41:49.791Z,27.66
2018-07-20T13:44:18.107Z,27.57
2018-07-20T13:46:46.494Z,27.46
2018-07-20T13:49:14.870Z,27.38
2018-07-20T13:51:43.290Z,27.44
2018-07-20T13:54:11.594Z,27.37
2018-07-20T13:56:39.963Z,27.26
2018-07-20T13:59:08.284Z,27.04
2018-07-20T14:01:36.620Z,27.15
2018-07-20T14:04:05.126Z,27.14
2018-07-20T14:06:33.459Z,27.19
2018-07-20T14:09:01.841Z,27.20
2018-07-20T14:11:30.237Z,27.01
2018-07-20T14:13:58.626Z,27.09
2018-07-20T14:16:26.980Z,27.18
2018-07-20T14:18:55.409Z,27.21
2018-07-20T14:21:23.793Z,27.17
2018-07-20T14:23:52.118Z,27.13
2018-07-20T14:26:20.530Z,27.11
2018-07-20T14:28:48.912Z,26.78
2018-07-20T14:31:17.396Z,26.89
2018-07-20T14:33:45.778Z,26.99
2018-07-20T14:36:14.507Z,26.99
2018-07-20T14:38:42.799Z,27.12
2018-07-20T14:41:11.170Z,27.20
2018-07-20T14:43:39.455Z,27.08
2018-07-20T14:46:07.952Z,27.27
2018-07-20T14:48:36.362Z,27.41
2018-07-20T14:51:04.852Z,27.33
2018-07-20T14:53:33.428Z,27.41
2018-07-20T14:56:01.802Z,27.42
2018-07-20T14:58:30.235Z,27.43
2018-07-20T15:00:58.599Z,27.37
2018-07-20T15:03:26.938Z,27.45
2018-07-20T15:05:55.349Z,27.44
2018-07-20T15:08:23.618Z,27.42
2018-07-20T15:10:51.967Z,27.37
2018-07-20T15:13:20.346Z,27.21
2018-07-20T15:15:48.708Z,27.25
2018-07-20T15:18:17.388Z,27.13
2018-07-20T15:20:45.806Z,26.93
2018-07-20T15:23:14.347Z,26.90
2018-07-20T15:25:42.748Z,26.88
2018-07-20T15:28:11.269Z,27.06
2018-07-20T15:30:39.575Z,27.21
2018-07-20T15:33:08.023Z,27.27
2018-07-20T15:35:36.765Z,27.27
2018-07-20T15:38:05.188Z,27.39
2018-07-20T15:40:33.574Z,27.27
2018-07-20T15:43:01.902Z,27.54
2018-07-20T15:45:30.242Z,27.76
2018-07-20T15:47:58.588Z,27.49
2018-07-20T15:50:26.901Z,27.58
2018-07-20T15:53:36.283Z,27.55
2018-07-20T15:55:23.685Z,27.54
2018-07-20T15:57:52.842Z,27.34
2018-07-20T16:00:21.208Z,27.44
2018-07-20T16:02:49.599Z,27.50
2018-07-20T16:05:17.959Z,27.39
2018-07-20T16:07:46.372Z,27.39
2018-07-20T16:10:14.798Z,27.27
2018-07-20T16:12:43.188Z,27.31
2018-07-20T16:15:11.952Z,27.11
2018-07-20T16:17:40.387Z,27.13
2018-07-20T16:20:08.768Z,27.20
2018-07-20T16:22:37.110Z,27.02
2018-07-20T16:25:05.440Z,27.09
2018-07-20T16:27:33.819Z,27.07
2018-07-20T16:30:02.342Z,27.06
2018-07-20T16:32:30.686Z,27.09
2018-07-20T16:34:59.114Z,27.13
2018-07-20T16:37:27.437Z,27.19
2018-07-20T16:39:55.750Z,27.18
2018-07-20T16:42:24.171Z,27.16
2018-07-20T16:44:52.441Z,27.12
2018-07-20T16:47:20.962Z,27.50
2018-07-20T16:49:49.322Z,27.74
2018-07-20T16:52:17.728Z,27.50
2018-07-20T16:54:46.235Z,28.01
2018-07-20T16:57:14.741Z,27.67
2018-07-20T16:59:43.482Z,27.61
2018-07-20T17:02:11.837Z,27.79
2018-07-20T17:04:40.342Z,27.95
2018-07-20T17:07:08.793Z,28.02
2018-07-20T17:09:37.144Z,27.61
2018-07-20T17:12:05.988Z,27.37
2018-07-20T17:14:34.335Z,27.53
2018-07-20T17:17:02.626Z,27.60
2018-07-20T17:19:31.314Z,27.66
2018-07-20T17:21:59.647Z,27.79
2018-07-20T17:24:28.770Z,27.80
2018-07-20T17:26:57.355Z,27.96
2018-07-20T17:29:25.932Z,27.82
2018-07-20T17:31:54.335Z,28.02
2018-07-20T17:34:22.854Z,27.90
2018-07-20T17:36:51.189Z,28.21
2018-07-20T17:39:30.381Z,28.34
2018-07-20T17:41:59.976Z,28.31
2018-07-20T17:44:29.499Z,28.37
2018-07-20T17:46:57.808Z,28.39
2018-07-20T17:49:26.151Z,28.42
2018-07-20T17:51:54.484Z,28.39
2018-07-20T17:54:23.052Z,28.34
2018-07-20T17:56:51.579Z,27.99
2018-07-20T17:59:20.679Z,27.99
2018-07-20T18:01:49.031Z,27.94
2018-07-20T18:04:17.459Z,27.82
2018-07-20T18:06:45.927Z,27.69
2018-07-20T18:09:14.324Z,27.03
2018-07-20T18:11:43.256Z,26.79
2018-07-20T18:14:11.843Z,25.96
2018-07-20T18:16:40.432Z,25.66
2018-07-20T18:19:08.888Z,25.33
2018-07-20T18:21:37.687Z,25.29
2018-07-20T18:24:06.169Z,25.08
2018-07-20T18:26:34.535Z,24.83
2018-07-20T18:29:02.951Z,24.36
2018-07-20T18:31:31.251Z,24.41
2018-07-20T18:34:00.350Z,24.34
2018-07-20T18:36:28.755Z,24.30
2018-07-20T18:38:57.137Z,23.92
2018-07-20T18:41:25.706Z,23.98
2018-07-20T18:43:55.862Z,24.11
2018-07-20T18:46:24.268Z,23.60
2018-07-20T18:48:52.644Z,23.33
2018-07-20T18:51:21.046Z,23.22
2018-07-20T18:53:49.613Z,22.94
2018-07-20T18:56:18.758Z,23.04
2018-07-20T18:58:47.192Z,22.92
2018-07-20T19:01:15.742Z,22.83
2018-07-20T19:03:44.143Z,22.54
2018-07-20T19:06:12.626Z,22.35
2018-07-20T19:08:41.126Z,22.24
2018-07-20T19:11:09.886Z,22.08
2018-07-20T19:13:38.570Z,22.08
2018-07-20T19:16:06.981Z,21.92
2018-07-20T19:18:36.342Z,21.80
2018-07-20T19:21:04.870Z,21.55
2018-07-20T19:23:33.300Z,21.43
2018-07-20T19:26:01.639Z,21.47
2018-07-20T19:28:29.962Z,21.35
2018-07-20T19:30:58.355Z,21.26
2018-07-20T19:33:26.675Z,21.28
2018-07-20T19:35:55.056Z,21.26
2018-07-20T19:38:23.422Z,21.24
2018-07-20T19:40:51.815Z,21.19
2018-07-20T19:43:20.450Z,21.10
2018-07-20T19:45:48.895Z,20.84
2018-07-20T19:48:17.287Z,20.56
2018-07-20T19:50:45.643Z,20.45
2018-07-20T19:53:13.936Z,20.24
2018-07-20T19:55:42.250Z,19.99
2018-07-20T19:58:10.623Z,19.89
2018-07-20T20:00:38.962Z,19.72
2018-07-20T20:03:07.294Z,19.76
2018-07-20T20:05:35.631Z,19.83
2018-07-20T20:08:04.098Z,19.67
2018-07-20T20:10:32.488Z,19.60
2018-07-20T20:13:00.788Z,19.64
2018-07-20T20:15:29.165Z,19.70
2018-07-20T20:17:57.476Z,19.62
2018-07-20T20:20:26.781Z,19.28
2018-07-20T20:23:14.997Z,18.94
2018-07-20T20:25:43.349Z,18.93
2018-07-20T20:28:11.669Z,19.03
2018-07-20T20:30:40.313Z,18.66
2018-07-20T20:33:08.650Z,18.68
2018-07-20T20:35:37.269Z,18.68
2018-07-20T20:38:05.589Z,18.86
2018-07-20T20:40:33.973Z,19.12
2018-07-20T20:43:02.305Z,19.05
2018-07-20T20:45:30.628Z,19.18
2018-07-20T20:47:58.948Z,18.85
2018-07-20T20:50:27.458Z,18.50
2018-07-20T20:52:55.819Z,18.35
2018-07-20T20:55:24.145Z,18.34
2018-07-20T20:57:52.553Z,18.37
2018-07-20T21:00:20.860Z,18.49
2018-07-20T21:02:49.214Z,18.61
2018-07-20T21:05:17.510Z,18.54
2018-07-20T21:07:46.097Z,18.71
2018-07-20T21:10:14.526Z,18.67
2018-07-20T21:12:42.816Z,18.66
2018-07-20T21:15:11.210Z,18.67
2018-07-20T21:17:39.550Z,18.42
2018-07-20T21:20:07.895Z,18.20
2018-07-20T21:22:36.342Z,18.39
2018-07-20T21:25:05.066Z,18.36
2018-07-20T21:27:33.397Z,18.09
2018-07-20T21:30:01.757Z,18.27
2018-07-20T21:32:30.162Z,18.06
2018-07-20T21:34:58.553Z,18.19
2018-07-20T21:37:27.011Z,18.25
2018-07-20T21:39:58.989Z,17.94
2018-07-20T21:42:27.306Z,17.93
2018-07-20T21:44:55.625Z,17.85
2018-07-20T21:47:23.960Z,17.90
2018-07-20T21:49:52.392Z,18.08
2018-07-20T21:52:20.726Z,17.99
2018-07-20T21:54:48.991Z,17.86
2018-07-20T21:57:17.347Z,17.52
2018-07-20T21:59:45.641Z,17.17
2018-07-20T22:02:13.963Z,17.06
2018-07-20T22:04:42.241Z,17.35
2018-07-20T22:07:10.603Z,17.72
2018-07-20T22:09:38.888Z,17.73
2018-07-20T22:12:07.230Z,17.63
2018-07-20T22:14:35.547Z,17.79
2018-07-20T22:17:03.949Z,17.81
2018-07-20T22:19:32.465Z,17.92
2018-07-20T22:22:00.810Z,17.92
2018-07-20T22:24:29.206Z,17.83
2018-07-20T22:26:57.536Z,18.06
2018-07-20T22:29:25.888Z,17.81
2018-07-20T22:31:54.239Z,17.80
2018-07-20T22:34:22.539Z,17.57
2018-07-20T22:36:50.937Z,17.57
2018-07-20T22:39:19.273Z,17.49
2018-07-20T22:41:47.661Z,17.68
2018-07-20T22:44:16.217Z,17.75
2018-07-20T22:46:44.527Z,17.68
2018-07-20T22:49:12.806Z,17.68
2018-07-20T22:51:41.152Z,17.55
2018-07-20T22:54:09.483Z,17.53
2018-07-20T22:56:37.893Z,17.49
2018-07-20T22:59:06.257Z,17.68
2018-07-20T23:01:34.661Z,17.60
2018-07-20T23:04:03.024Z,17.66
2018-07-20T23:06:31.388Z,17.66
2018-07-20T23:08:59.711Z,17.57
2018-07-20T23:11:28.054Z,17.50
2018-07-20T23:13:56.347Z,17.51
2018-07-20T23:16:24.674Z,17.49
2018-07-20T23:18:52.939Z,17.46
2018-07-20T23:21:21.339Z,17.59
2018-07-20T23:23:49.646Z,17.57
2018-07-20T23:26:18.233Z,17.37
2018-07-20T23:28:46.516Z,17.45
2018-07-20T23:31:14.936Z,17.32
2018-07-20T23:33:43.345Z,17.52
2018-07-20T23:36:11.652Z,17.54
2018-07-20T23:38:39.977Z,17.37
2018-07-20T23:41:08.340Z,17.45
2018-07-20T23:43:36.596Z,17.18
2018-07-20T23:46:05.034Z,17.16
2018-07-20T23:48:33.410Z,17.26
2018-07-20T23:51:01.786Z,16.90
2018-07-20T23:53:30.070Z,16.95
2018-07-20T23:55:58.371Z,16.99
2018-07-20T23:58:26.779Z,17.01
